Time;durP1;ratioP1;P1;durP2;ratioP2;P2;SDS_P1;SDS_P2;PMS_P1;PMS_P2;Temp;Humidity;BMP_temperature;BMP_pressure;BME280_temperature;BME280_humidity;BME280_pressure;Samples;Min_cycle;Max_cycle;Signal;HPM_P1;HPM_P2
2022/04/10 00:01:58;;;;;;;5.15;2.35;;;;;;;4.57;59.20;101197.03;5113574;28;20383;-44
2022/04/10 00:04:24;;;;;;;10.18;2.40;;;;;;;4.55;58.89;101202.53;5113996;28;20059;-44
2022/04/10 00:06:49;;;;;;;5.82;2.60;;;;;;;4.53;58.98;101214.25;5096121;28;20036;-44
2022/04/10 00:09:15;;;;;;;5.85;2.83;;;;;;;4.44;58.67;101214.09;5113665;28;20508;-45
2022/04/10 00:11:41;;;;;;;4.03;2.63;;;;;;;4.43;59.43;101214.22;5078331;28;20031;-43
2022/04/10 00:14:07;;;;;;;4.97;2.72;;;;;;;4.42;58.89;101218.72;5113308;28;20379;-42
2022/04/10 00:16:33;;;;;;;4.55;2.20;;;;;;;4.37;59.14;101212.13;5113637;28;20050;-43
2022/04/10 00:19:04;;;;;;;5.38;2.10;;;;;;;4.29;59.13;101215.47;5113237;28;20416;-42
2022/04/10 00:21:31;;;;;;;7.55;2.80;;;;;;;4.30;59.30;101214.47;5115624;28;20024;-42
2022/04/10 00:23:57;;;;;;;6.45;2.30;;;;;;;4.24;59.49;101223.00;5117563;28;20374;-41
2022/04/10 00:26:23;;;;;;;3.40;1.90;;;;;;;4.19;59.35;101217.22;5099556;28;20107;-41
2022/04/10 00:28:48;;;;;;;4.57;2.20;;;;;;;4.03;60.08;101201.75;5117248;28;20356;-42
2022/04/10 00:31:14;;;;;;;7.70;2.63;;;;;;;4.12;59.65;101221.38;5117173;28;20038;-46
2022/04/10 00:33:40;;;;;;;3.33;2.30;;;;;;;4.04;60.19;101232.69;5117185;28;20035;-43
2022/04/10 00:36:06;;;;;;;7.50;2.33;;;;;;;3.94;60.66;101214.03;5117484;28;20423;-43
2022/04/10 00:38:31;;;;;;;4.75;2.65;;;;;;;3.95;60.36;101229.00;5117650;28;20023;-43
2022/04/10 00:40:57;;;;;;;5.82;2.42;;;;;;;3.91;60.31;101230.22;5098781;28;20032;-42
2022/04/10 00:43:30;;;;;;;3.83;2.17;;;;;;;3.87;60.98;101226.16;5117315;28;20031;-42
2022/04/10 00:45:58;;;;;;;4.57;2.45;;;;;;;3.89;60.41;101229.53;5099005;28;20059;-44
2022/04/10 00:48:24;;;;;;;4.35;2.17;;;;;;;3.83;60.54;101225.56;5098806;28;20027;-43
2022/04/10 00:53:37;;;;;;;3.33;2.05;;;;;;;3.70;61.39;101214.31;5101742;28;20066;-42
2022/04/10 00:56:04;;;;;;;6.28;2.30;;;;;;;3.69;61.19;101221.41;5116923;28;20039;-43
2022/04/10 00:58:32;;;;;;;7.10;2.22;;;;;;;3.69;61.24;101229.38;5081769;28;20064;-42
2022/04/10 01:00:58;;;;;;;4.30;1.98;;;;;;;3.67;61.40;101231.34;5117119;28;20027;-46
2022/04/10 01:03:24;;;;;;;5.07;2.05;;;;;;;3.65;61.14;101227.97;5098496;28;20309;-42
2022/04/10 01:05:50;;;;;;;5.15;2.42;;;;;;;3.75;61.15;101227.19;5116390;28;20048;-42
2022/04/10 01:08:16;;;;;;;9.70;2.60;;;;;;;3.75;61.09;101235.16;5117081;28;20106;-42
2022/04/10 01:10:42;;;;;;;3.58;2.20;;;;;;;3.71;61.38;101229.25;5098515;28;20077;-42
2022/04/10 01:13:10;;;;;;;4.63;2.70;;;;;;;3.77;61.19;101230.56;5116632;28;20047;-42
2022/04/10 01:15:37;;;;;;;3.10;2.15;;;;;;;3.77;61.29;101228.75;5116791;28;20035;-43
2022/04/10 01:18:06;;;;;;;8.30;2.83;;;;;;;3.77;61.05;101231.41;5116604;28;20111;-44
2022/04/10 01:20:33;;;;;;;3.28;2.13;;;;;;;3.77;61.46;101235.88;5116618;28;20051;-44
2022/04/10 01:22:59;;;;;;;3.67;2.20;;;;;;;3.74;61.70;101228.19;5117543;28;20028;-43
2022/04/10 01:25:25;;;;;;;5.70;2.25;;;;;;;3.66;62.05;101213.72;5116975;28;20043;-43
2022/04/10 01:27:51;;;;;;;3.45;2.33;;;;;;;3.64;62.47;101228.97;5117138;28;20035;-42
2022/04/10 01:30:17;;;;;;;6.35;2.25;;;;;;;3.62;62.11;101222.06;5098235;28;20453;-42
2022/04/10 01:32:42;;;;;;;8.50;2.50;;;;;;;3.48;63.07;101205.50;5115931;28;20205;-42
2022/04/10 01:35:09;;;;;;;7.13;2.40;;;;;;;3.43;62.67;101193.56;5116457;28;20031;-46
2022/04/10 01:37:36;;;;;;;4.43;2.50;;;;;;;3.39;62.25;101187.69;5116330;28;20127;-42
2022/04/10 01:40:03;;;;;;;7.25;2.53;;;;;;;3.43;62.03;101182.97;5098134;28;20024;-44
2022/04/10 01:42:29;;;;;;;4.72;2.20;;;;;;;3.46;62.53;101201.31;5098734;28;20363;-42
2022/04/10 01:44:54;;;;;;;4.07;2.03;;;;;;;3.45;62.25;101199.59;5116789;28;20110;-42
2022/04/10 01:47:20;;;;;;;3.78;2.58;;;;;;;3.38;61.99;101186.03;5117498;28;20429;-42
2022/04/10 01:49:46;;;;;;;6.75;2.40;;;;;;;3.35;61.72;101196.06;5116999;28;20118;-43
2022/04/10 01:52:12;;;;;;;6.72;2.40;;;;;;;3.26;62.18;101187.88;5116979;28;20130;-42
2022/04/10 01:54:37;;;;;;;5.13;2.53;;;;;;;3.20;62.78;101196.34;5116969;28;20027;-45
2022/04/10 01:57:05;;;;;;;6.80;2.22;;;;;;;3.13;62.38;101192.53;5116727;28;20397;-43
2022/04/10 01:59:30;;;;;;;6.38;2.70;;;;;;;3.06;62.98;101194.00;5116421;28;20102;-42
2022/04/10 02:01:56;;;;;;;3.33;2.22;;;;;;;2.98;62.96;101191.97;5098819;28;20059;-42
2022/04/10 02:04:22;;;;;;;6.10;2.70;;;;;;;3.02;63.01;101200.53;5094908;28;20052;-44
2022/04/10 02:06:48;;;;;;;4.78;2.75;;;;;;;2.95;63.29;101199.34;5095980;28;20104;-43
2022/04/10 02:09:14;;;;;;;4.97;2.65;;;;;;;2.85;63.13;101186.84;5095669;28;20039;-42
2022/04/10 02:11:40;;;;;;;5.15;2.63;;;;;;;2.86;63.44;101204.44;5095892;28;20048;-41
2022/04/10 02:14:06;;;;;;;2.92;2.35;;;;;;;2.78;63.46;101190.13;5095850;28;20502;-44
2022/04/10 02:16:31;;;;;;;4.85;2.70;;;;;;;2.78;63.62;101188.28;5093758;28;20034;-43
2022/04/10 02:18:57;;;;;;;4.35;2.70;;;;;;;2.78;63.59;101196.25;5095259;28;20024;-45
2022/04/10 02:21:23;;;;;;;4.57;2.70;;;;;;;2.75;63.35;101198.31;5095267;28;20024;-43
2022/04/10 02:23:49;;;;;;;5.63;2.70;;;;;;;2.77;64.35;101201.69;5095312;28;20028;-41
2022/04/10 02:26:14;;;;;;;5.07;2.63;;;;;;;2.71;63.67;101195.94;5095445;28;20024;-43
2022/04/10 02:28:41;;;;;;;5.72;2.83;;;;;;;2.56;63.91;101204.25;5095659;28;20035;-44
2022/04/10 02:31:07;;;;;;;4.80;2.55;;;;;;;2.55;64.29;101192.00;5095420;28;20028;-42
2022/04/10 02:33:33;;;;;;;4.28;2.65;;;;;;;2.60;63.56;101193.31;5095121;28;20024;-43
2022/04/10 02:36:00;;;;;;;3.78;2.45;;;;;;;2.67;63.47;101199.78;5094828;28;20521;-41
2022/04/10 02:38:25;;;;;;;6.13;2.65;;;;;;;2.58;63.69;101203.19;5094854;28;20106;-42
2022/04/10 02:40:51;;;;;;;5.50;2.20;;;;;;;2.45;63.86;101192.72;5111199;28;20545;-42
2022/04/10 02:43:17;;;;;;;4.93;2.33;;;;;;;2.47;64.52;101201.41;5094998;28;20024;-48
2022/04/10 02:45:43;;;;;;;4.32;2.53;;;;;;;2.40;64.46;101200.19;5094871;28;20117;-43
2022/04/10 02:48:09;;;;;;;3.42;2.65;;;;;;;2.33;64.84;101191.03;5095255;28;20041;-45
2022/04/10 02:50:37;;;;;;;5.55;2.50;;;;;;;2.25;64.57;101190.81;5095344;28;20043;-42
2022/04/10 02:53:03;;;;;;;4.05;2.55;;;;;;;2.27;65.15;101199.50;5095253;28;20024;-43
2022/04/10 02:55:29;;;;;;;6.45;2.50;;;;;;;2.18;65.47;101190.44;5095123;28;20204;-43
2022/04/10 02:57:55;;;;;;;5.35;2.50;;;;;;;2.16;64.62;101186.25;5093946;28;20533;-41
2022/04/10 03:00:21;;;;;;;5.07;2.58;;;;;;;2.17;65.13;101209.13;5094834;28;20024;-42
2022/04/10 03:02:47;;;;;;;4.07;2.20;;;;;;;2.13;65.40;101209.34;5110696;28;20059;-41
2022/04/10 03:05:13;;;;;;;6.60;2.58;;;;;;;2.12;64.73;101210.31;5105641;28;20116;-46
2022/04/10 03:07:39;;;;;;;5.68;2.45;;;;;;;2.04;65.50;101207.41;5096767;28;20046;-45
2022/04/10 03:10:05;;;;;;;2.92;2.20;;;;;;;2.06;65.35;101210.81;5115188;28;20023;-41
2022/04/10 03:12:31;;;;;;;8.50;2.78;;;;;;;2.05;65.52;101216.22;5096797;28;20502;-41
2022/04/10 03:14:57;;;;;;;5.63;2.70;;;;;;;2.00;65.53;101203.31;5114997;28;20032;-43
2022/04/10 03:17:22;;;;;;;5.93;2.40;;;;;;;2.02;65.40;101208.50;5114718;28;20443;-41
2022/04/10 03:19:49;;;;;;;3.90;2.65;;;;;;;1.89;65.81;101212.09;5096680;28;20098;-43
2022/04/10 03:22:15;;;;;;;7.07;3.22;;;;;;;1.86;65.99;101214.19;5096336;28;20110;-43
2022/04/10 03:24:40;;;;;;;6.13;3.08;;;;;;;1.90;66.61;101228.84;5114321;28;20035;-43
2022/04/10 03:27:06;;;;;;;4.53;3.22;;;;;;;1.87;66.99;101211.38;5114884;28;20104;-42
2022/04/10 03:29:32;;;;;;;6.93;3.13;;;;;;;1.81;67.08;101218.97;5096535;28;20107;-43
2022/04/10 03:31:58;;;;;;;4.65;2.90;;;;;;;1.71;67.19;101201.16;5114922;28;20020;-40
2022/04/10 03:34:24;;;;;;;4.80;3.05;;;;;;;1.77;67.23;101214.88;5096499;28;20102;-41
2022/04/10 03:36:49;;;;;;;10.45;2.83;;;;;;;1.65;67.19;101198.94;5115033;28;20027;-41
2022/04/10 03:39:15;;;;;;;8.15;2.63;;;;;;;1.78;66.67;101222.69;5114576;28;20513;-42
2022/04/10 03:41:41;;;;;;;5.72;2.95;;;;;;;1.69;66.82;101208.38;5114917;28;20080;-40
2022/04/10 03:44:07;;;;;;;4.22;2.60;;;;;;;1.66;66.81;101211.25;5079664;28;20023;-41
2022/04/10 03:46:32;;;;;;;4.07;3.00;;;;;;;1.70;66.93;101228.56;5114503;28;20387;-41
2022/04/10 03:48:58;;;;;;;2.60;2.28;;;;;;;1.70;66.81;101233.03;5114842;28;20019;-41
2022/04/10 03:51:24;;;;;;;4.38;2.53;;;;;;;1.64;66.82;101231.69;5114506;28;20471;-42
2022/04/10 03:53:50;;;;;;;4.80;3.33;;;;;;;1.59;66.97;101236.50;5079808;28;20024;-42
2022/04/10 03:56:16;;;;;;;3.95;2.50;;;;;;;1.52;66.71;101222.03;5096301;28;20031;-42
2022/04/10 03:58:42;;;;;;;2.90;2.35;;;;;;;1.51;66.88;101225.66;5096205;28;20386;-41
2022/04/10 04:01:08;;;;;;;4.32;2.50;;;;;;;1.53;67.11;101229.03;5096162;28;20039;-41
2022/04/10 04:03:35;;;;;;;5.65;3.30;;;;;;;1.45;67.70;101231.38;5096206;28;20154;-43
2022/04/10 04:06:01;;;;;;;8.40;3.35;;;;;;;1.34;67.90;101227.75;5095449;28;20051;-41
2022/04/10 04:08:26;;;;;;;4.80;2.92;;;;;;;1.26;68.15;101227.47;5114593;28;20072;-41
2022/04/10 04:10:52;;;;;;;6.38;3.13;;;;;;;1.28;69.04;101235.28;5096229;28;20103;-41
2022/04/10 04:13:18;;;;;;;3.67;2.50;;;;;;;1.28;68.61;101230.88;5114125;28;20072;-41
2022/04/10 04:15:44;;;;;;;3.13;2.50;;;;;;;1.27;67.51;101215.09;5114362;28;20520;-41
2022/04/10 04:18:09;;;;;;;10.00;2.70;;;;;;;1.24;68.01;101213.50;5114166;28;20125;-42
2022/04/10 04:20:35;;;;;;;6.68;2.85;;;;;;;1.31;68.09;101233.28;5114450;28;20028;-41
2022/04/10 04:23:01;;;;;;;4.45;2.63;;;;;;;1.15;68.40;101206.25;5114334;28;20027;-41
2022/04/10 04:25:27;;;;;;;10.30;2.47;;;;;;;1.23;67.59;101238.31;5079377;28;20059;-41
2022/04/10 04:27:52;;;;;;;5.18;2.75;;;;;;;1.17;68.08;101233.47;5114051;28;20120;-42
2022/04/10 04:30:18;;;;;;;5.97;2.65;;;;;;;1.21;67.71;101237.56;5113788;28;20027;-40
2022/04/10 04:32:44;;;;;;;6.35;3.20;;;;;;;1.21;67.88;101242.00;5095818;28;20047;-41
2022/04/10 04:35:12;;;;;;;4.78;3.00;;;;;;;1.22;67.88;101238.41;5114083;28;20052;-41
2022/04/10 04:37:40;;;;;;;5.55;2.90;;;;;;;1.25;67.85;101241.66;5113646;28;20379;-40
2022/04/10 04:40:09;;;;;;;2.60;2.40;;;;;;;1.21;68.06;101237.56;5114114;28;20116;-41
2022/04/10 04:42:34;;;;;;;6.40;2.75;;;;;;;1.16;68.38;101237.06;5095874;28;20479;-41
2022/04/10 04:45:00;;;;;;;5.80;2.72;;;;;;;1.14;68.53;101245.09;5113797;28;20038;-41
2022/04/10 04:47:26;;;;;;;7.65;2.90;;;;;;;1.10;68.04;101240.16;5113925;28;20155;-41
2022/04/10 04:49:51;;;;;;;4.13;2.40;;;;;;;1.02;68.59;101237.22;5113353;28;20031;-44
2022/04/10 04:52:18;;;;;;;4.38;2.60;;;;;;;1.04;68.76;101238.81;5113397;28;20035;-41
2022/04/10 04:54:44;;;;;;;5.15;2.70;;;;;;;0.91;68.34;101225.66;5062425;28;20080;-41
2022/04/10 04:57:10;;;;;;;5.90;3.20;;;;;;;0.91;68.85;101217.72;5113297;28;20410;-41
2022/04/10 04:59:35;;;;;;;6.32;2.65;;;;;;;1.01;67.86;101236.38;5094907;28;20063;-41
2022/04/10 05:02:01;;;;;;;6.22;2.85;;;;;;;0.98;68.95;101241.91;5113317;28;20039;-41
2022/04/10 05:04:27;;;;;;;4.68;3.00;;;;;;;0.92;68.44;101237.06;5113308;28;20070;-40
2022/04/10 05:06:53;;;;;;;3.45;2.45;;;;;;;0.91;69.05;101246.81;5095943;28;20056;-40
2022/04/10 05:09:18;;;;;;;6.82;3.10;;;;;;;0.92;68.39;101243.19;5098103;28;20027;-41
2022/04/10 05:11:44;;;;;;;3.10;2.53;;;;;;;1.00;68.73;101244.44;5117021;28;20043;-40
2022/04/10 05:14:10;;;;;;;4.18;3.08;;;;;;;1.01;68.55;101249.63;5118921;28;20039;-40
2022/04/10 05:16:35;;;;;;;6.10;2.42;;;;;;;1.02;68.79;101248.63;5118858;28;20032;-40
2022/04/10 05:19:01;;;;;;;9.48;2.60;;;;;;;0.96;67.91;101233.22;5118720;28;20096;-41
2022/04/10 05:21:27;;;;;;;3.03;2.40;;;;;;;0.98;68.39;101247.19;5118378;28;20494;-42
2022/04/10 05:23:53;;;;;;;3.10;2.38;;;;;;;0.89;68.12;101239.91;5099975;28;20035;-41
2022/04/10 05:26:18;;;;;;;11.13;2.53;;;;;;;0.94;68.74;101243.91;5098731;28;20035;-41
2022/04/10 05:28:44;;;;;;;3.70;2.63;;;;;;;0.93;68.28;101241.41;5098343;28;20047;-41
2022/04/10 05:31:10;;;;;;;2.85;2.17;;;;;;;0.88;68.70;101239.09;5098630;28;20032;-40
2022/04/10 05:33:36;;;;;;;5.43;2.40;;;;;;;0.86;68.39;101235.72;5098352;28;20039;-41
2022/04/10 05:36:01;;;;;;;3.13;2.50;;;;;;;0.57;68.29;101188.44;5116229;28;20082;-42
2022/04/10 05:38:27;;;;;;;3.67;2.80;;;;;;;0.88;68.94;101239.09;5116108;28;20024;-40
2022/04/10 05:40:53;;;;;;;4.25;2.47;;;;;;;0.86;68.36;101243.66;5116431;28;20368;-41
2022/04/10 05:43:20;;;;;;;4.50;2.45;;;;;;;0.92;68.69;101252.94;5116078;28;20024;-40
2022/04/10 05:45:47;;;;;;;5.10;2.58;;;;;;;0.87;68.35;101245.31;5116254;28;20023;-42
2022/04/10 05:48:13;;;;;;;5.07;2.95;;;;;;;0.90;69.22;101250.38;5098175;28;20027;-40
2022/04/10 05:50:38;;;;;;;5.18;2.55;;;;;;;0.87;68.79;101239.19;5116328;28;20031;-41
2022/04/10 05:53:04;;;;;;;4.53;2.88;;;;;;;0.96;68.84;101254.38;5098164;28;20059;-41
2022/04/10 05:55:30;;;;;;;4.50;2.92;;;;;;;0.98;68.91;101259.56;5097622;28;20028;-40
2022/04/10 05:57:57;;;;;;;7.75;3.25;;;;;;;1.03;69.24;101260.09;5116096;28;20040;-41
2022/04/10 06:00:23;;;;;;;4.57;2.58;;;;;;;1.06;69.02;101263.34;5116149;28;20038;-41
2022/04/10 06:02:49;;;;;;;5.30;2.65;;;;;;;1.07;69.08;101258.91;5115792;28;20034;-41
2022/04/10 06:05:15;;;;;;;5.72;2.88;;;;;;;1.27;68.97;101265.38;5115516;28;20382;-40
2022/04/10 06:07:41;;;;;;;4.22;2.70;;;;;;;1.31;68.69;101266.84;5097849;28;20062;-44
2022/04/10 06:10:08;;;;;;;3.42;2.60;;;;;;;1.51;68.11;101270.66;5115652;28;20085;-40
2022/04/10 06:12:33;;;;;;;6.80;3.13;;;;;;;1.48;67.51;101258.47;5115970;28;20464;-43
2022/04/10 06:14:59;;;;;;;5.80;3.30;;;;;;;1.49;68.12;101262.81;5115888;28;20039;-42
2022/04/10 06:17:25;;;;;;;4.15;2.92;;;;;;;1.41;69.24;101256.41;5115395;28;20491;-41
2022/04/10 06:19:51;;;;;;;7.32;3.75;;;;;;;1.48;69.20;101257.63;5114228;28;20019;-41
2022/04/10 06:22:16;;;;;;;3.72;2.92;;;;;;;1.56;68.65;101268.50;5115675;28;20114;-40
2022/04/10 06:24:42;;;;;;;3.80;2.92;;;;;;;1.58;69.02;101265.72;5115925;28;20036;-41
2022/04/10 06:27:08;;;;;;;5.18;3.75;;;;;;;1.67;68.19;101270.31;5097217;28;20027;-42
2022/04/10 06:29:34;;;;;;;6.70;3.35;;;;;;;1.66;68.29;101260.72;5115232;28;20126;-41
2022/04/10 06:31:59;;;;;;;20.65;10.60;;;;;;;1.74;68.90;101263.59;5063744;28;20122;-43
2022/04/10 06:34:25;;;;;;;19.45;11.20;;;;;;;2.61;67.39;101258.63;5115866;28;20087;-41
2022/04/10 06:36:51;;;;;;;13.32;6.40;;;;;;;2.96;65.55;101270.84;5115613;28;20028;-41
2022/04/10 06:39:17;;;;;;;13.10;7.28;;;;;;;2.57;66.39;101267.78;5115380;28;20581;-41
2022/04/10 06:41:43;;;;;;;9.15;6.50;;;;;;;2.41;66.98;101267.31;5115221;28;20035;-40
2022/04/10 06:44:09;;;;;;;6.20;4.72;;;;;;;2.32;67.26;101267.06;5114792;28;20055;-41
2022/04/10 06:46:35;;;;;;;7.47;5.20;;;;;;;2.27;68.06;101252.50;5096896;28;20032;-41
2022/04/10 06:49:01;;;;;;;7.93;4.65;;;;;;;2.25;68.04;101249.13;5114770;28;20032;-42
2022/04/10 06:51:26;;;;;;;5.60;4.30;;;;;;;2.39;68.38;101269.22;5114650;28;20053;-41
2022/04/10 06:53:52;;;;;;;7.65;5.22;;;;;;;2.44;68.49;101265.25;5114885;28;20038;-41
2022/04/10 06:56:18;;;;;;;9.88;5.53;;;;;;;2.52;67.88;101268.13;5115343;28;20047;-42
2022/04/10 06:58:44;;;;;;;9.88;3.42;;;;;;;2.66;67.04;101260.91;5096250;28;20034;-41
2022/04/10 07:01:09;;;;;;;6.40;4.20;;;;;;;2.77;67.07;101262.69;5114868;28;20116;-43
2022/04/10 07:03:36;;;;;;;3.80;3.25;;;;;;;2.85;66.49;101268.22;5114718;28;20430;-40
2022/04/10 07:06:01;;;;;;;7.63;3.10;;;;;;;2.89;66.22;101253.75;5097052;28;20059;-41
2022/04/10 07:08:27;;;;;;;4.38;2.80;;;;;;;3.04;65.82;101264.91;5114760;28;20131;-41
2022/04/10 07:10:53;;;;;;;8.02;3.00;;;;;;;3.13;65.99;101269.47;5114815;28;20075;-41
2022/04/10 07:13:21;;;;;;;9.25;2.90;;;;;;;3.18;66.17;101272.59;5114916;28;20114;-41
2022/04/10 07:15:50;;;;;;;3.13;2.40;;;;;;;3.23;66.41;101267.78;5096651;28;20455;-40
2022/04/10 07:18:16;;;;;;;4.50;2.78;;;;;;;3.28;66.47;101268.22;5114674;28;20045;-43
2022/04/10 07:20:42;;;;;;;4.13;2.50;;;;;;;3.35;66.67;101265.06;5114671;28;20035;-39
2022/04/10 07:25:54;;;;;;;8.55;2.58;;;;;;;3.43;66.74;101275.88;5099663;28;20027;-42
2022/04/10 07:28:20;;;;;;;3.65;2.45;;;;;;;3.60;65.40;101285.97;5096841;28;20020;-41
2022/04/10 07:30:46;;;;;;;5.47;2.38;;;;;;;3.76;63.88;101285.50;5114438;28;20024;-41
2022/04/10 07:33:12;;;;;;;8.10;2.92;;;;;;;3.83;64.05;101275.22;5115074;28;20066;-40
2022/04/10 07:35:40;;;;;;;5.32;2.67;;;;;;;3.90;64.42;101273.75;5097256;28;20360;-39
2022/04/10 07:38:06;;;;;;;6.00;2.17;;;;;;;4.07;64.01;101281.09;5096872;28;20139;-41
2022/04/10 07:40:33;;;;;;;3.28;2.35;;;;;;;4.15;64.40;101280.44;5114860;28;20475;-40
2022/04/10 07:42:59;;;;;;;6.90;2.70;;;;;;;4.10;63.74;101255.22;5114844;28;20088;-39
2022/04/10 07:48:11;;;;;;;6.65;2.40;;;;;;;4.37;63.58;101268.81;5082274;28;20387;-42
2022/04/10 07:50:37;;;;;;;4.45;1.95;;;;;;;4.49;63.60;101276.69;5114003;28;20114;-39
2022/04/10 07:53:02;;;;;;;6.45;2.13;;;;;;;4.53;63.75;101281.63;5114363;28;20030;-41
2022/04/10 07:55:29;;;;;;;4.70;1.77;;;;;;;4.67;62.24;101284.88;5114625;28;20030;-42
2022/04/10 07:57:55;;;;;;;3.85;1.95;;;;;;;4.69;62.16;101272.28;5096004;28;20028;-41
2022/04/10 08:00:21;;;;;;;4.63;2.08;;;;;;;4.92;61.82;101284.41;5114301;28;20088;-41
2022/04/10 08:02:48;;;;;;;4.13;2.05;;;;;;;4.99;61.45;101282.84;5114208;28;20027;-42
2022/04/10 08:05:15;;;;;;;8.57;1.80;;;;;;;5.18;61.33;101299.84;5115641;28;20463;-42
2022/04/10 08:07:41;;;;;;;5.53;2.10;;;;;;;5.33;61.04;101306.47;5115665;28;20463;-42
2022/04/10 08:10:08;;;;;;;6.40;2.30;;;;;;;5.37;59.93;101294.53;5115441;28;20369;-41
2022/04/10 08:12:34;;;;;;;4.47;1.92;;;;;;;5.48;60.66;101285.59;5116177;28;20106;-41
2022/04/10 08:15:00;;;;;;;4.10;1.80;;;;;;;5.53;59.19;101287.81;5097190;28;20459;-40
2022/04/10 08:17:26;;;;;;;3.47;2.15;;;;;;;5.62;58.62;101292.31;5117693;28;20032;-39
2022/04/10 08:20:12;;;;;;;3.15;1.58;;;;;;;5.72;59.33;101294.94;5116963;28;20038;-39
2022/04/10 08:23:00;;;;;;;2.30;1.85;;;;;;;5.85;58.99;101294.66;5113857;28;20035;-39
2022/04/10 08:25:46;;;;;;;4.07;2.13;;;;;;;5.96;58.16;101300.72;5112289;28;20032;-39
2022/04/10 08:28:34;;;;;;;7.20;2.33;;;;;;;6.11;57.91;101302.94;5111313;28;20039;-40
2022/04/10 08:31:20;;;;;;;7.07;2.13;;;;;;;6.28;56.42;101294.19;5110636;28;20411;-39
2022/04/10 08:34:06;;;;;;;5.85;2.00;;;;;;;6.45;55.08;101299.75;5083254;28;20031;-39
2022/04/10 08:36:52;;;;;;;2.88;1.67;;;;;;;6.51;54.89;101291.16;5112380;28;20097;-42
2022/04/10 08:39:38;;;;;;;6.63;2.08;;;;;;;6.69;54.04;101296.56;5111863;28;20028;-40
2022/04/10 08:42:24;;;;;;;3.42;1.58;;;;;;;6.72;54.06;101281.09;5113017;28;20067;-40
